sensor_id;sensor_type;location;lat;lon;timestamp;temperature;humidity
11256;HTU21D;5685;52.384;13.420;2022-07-23T00:01:40;24.80;99.90
11256;HTU21D;5685;52.384;13.420;2022-07-23T00:04:44;24.80;99.90
11256;HTU21D;5685;52.384;13.420;2022-07-23T00:07:46;24.80;99.90
11256;HTU21D;5685;52.384;13.420;2022-07-23T00:10:49;24.80;99.90
11256;HTU21D;5685;52.384;13.420;2022-07-23T00:13:51;24.70;99.90
11256;HTU21D;5685;52.384;13.420;2022-07-23T00:16:55;24.70;99.90
11256;HTU21D;5685;52.384;13.420;2022-07-23T00:19:59;24.70;99.90
11256;HTU21D;5685;52.384;13.420;2022-07-23T00:23:01;24.70;99.90
11256;HTU21D;5685;52.384;13.420;2022-07-23T00:26:04;24.70;99.90
11256;HTU21D;5685;52.384;13.420;2022-07-23T00:29:08;24.70;99.90
11256;HTU21D;5685;52.384;13.420;2022-07-23T00:32:10;24.70;99.90
11256;HTU21D;5685;52.384;13.420;2022-07-23T00:35:14;24.60;99.90
11256;HTU21D;5685;52.384;13.420;2022-07-23T00:38:17;24.60;99.90
11256;HTU21D;5685;52.384;13.420;2022-07-23T00:41:19;24.60;99.90
11256;HTU21D;5685;52.384;13.420;2022-07-23T00:44:23;24.60;99.90
11256;HTU21D;5685;52.384;13.420;2022-07-23T00:47:26;24.60;99.90
11256;HTU21D;5685;52.384;13.420;2022-07-23T00:50:30;24.60;99.90
11256;HTU21D;5685;52.384;13.420;2022-07-23T00:53:33;24.60;99.90
11256;HTU21D;5685;52.384;13.420;2022-07-23T00:56:35;24.60;99.90
11256;HTU21D;5685;52.384;13.420;2022-07-23T00:59:38;24.60;99.90
11256;HTU21D;5685;52.384;13.420;2022-07-23T01:02:41;24.60;99.90
11256;HTU21D;5685;52.384;13.420;2022-07-23T01:05:46;24.60;99.90
11256;HTU21D;5685;52.384;13.420;2022-07-23T01:08:48;24.60;99.90
11256;HTU21D;5685;52.384;13.420;2022-07-23T01:11:51;24.60;99.90
11256;HTU21D;5685;52.384;13.420;2022-07-23T01:14:55;24.60;99.90
11256;HTU21D;5685;52.384;13.420;2022-07-23T01:17:58;24.60;99.90
11256;HTU21D;5685;52.384;13.420;2022-07-23T01:21:02;24.60;99.90
11256;HTU21D;5685;52.384;13.420;2022-07-23T01:24:07;24.60;99.90
11256;HTU21D;5685;52.384;13.420;2022-07-23T01:27:10;24.60;99.90
11256;HTU21D;5685;52.384;13.420;2022-07-23T01:30:13;24.60;99.90
11256;HTU21D;5685;52.384;13.420;2022-07-23T01:33:15;24.60;99.90
11256;HTU21D;5685;52.384;13.420;2022-07-23T01:36:18;24.60;99.90
11256;HTU21D;5685;52.384;13.420;2022-07-23T01:39:22;24.60;99.90
11256;HTU21D;5685;52.384;13.420;2022-07-23T01:42:24;24.60;99.90
11256;HTU21D;5685;52.384;13.420;2022-07-23T01:45:27;24.60;99.90
11256;HTU21D;5685;52.384;13.420;2022-07-23T01:48:29;24.60;99.90
11256;HTU21D;5685;52.384;13.420;2022-07-23T01:51:31;24.60;99.90
11256;HTU21D;5685;52.384;13.420;2022-07-23T01:54:35;24.50;99.90
11256;HTU21D;5685;52.384;13.420;2022-07-23T01:57:37;24.60;99.90
11256;HTU21D;5685;52.384;13.420;2022-07-23T02:00:39;24.60;99.90
11256;HTU21D;5685;52.384;13.420;2022-07-23T02:03:42;24.60;99.90
11256;HTU21D;5685;52.384;13.420;2022-07-23T02:06:44;24.60;99.90
11256;HTU21D;5685;52.384;13.420;2022-07-23T02:09:48;24.60;99.90
11256;HTU21D;5685;52.384;13.420;2022-07-23T02:12:51;24.60;99.90
11256;HTU21D;5685;52.384;13.420;2022-07-23T02:15:53;24.60;99.90
11256;HTU21D;5685;52.384;13.420;2022-07-23T02:18:55;24.60;99.90
11256;HTU21D;5685;52.384;13.420;2022-07-23T02:21:57;24.60;99.90
11256;HTU21D;5685;52.384;13.420;2022-07-23T02:25:01;24.60;99.90
11256;HTU21D;5685;52.384;13.420;2022-07-23T02:28:04;24.60;99.90
11256;HTU21D;5685;52.384;13.420;2022-07-23T02:31:06;24.60;99.90
11256;HTU21D;5685;52.384;13.420;2022-07-23T02:34:09;24.60;99.90
11256;HTU21D;5685;52.384;13.420;2022-07-23T02:37:12;24.60;99.90
11256;HTU21D;5685;52.384;13.420;2022-07-23T02:40:16;24.60;99.90
11256;HTU21D;5685;52.384;13.420;2022-07-23T02:43:18;24.60;99.90
11256;HTU21D;5685;52.384;13.420;2022-07-23T02:46:21;24.60;99.90
11256;HTU21D;5685;52.384;13.420;2022-07-23T02:49:23;24.60;99.90
11256;HTU21D;5685;52.384;13.420;2022-07-23T02:52:25;24.60;99.90
11256;HTU21D;5685;52.384;13.420;2022-07-23T02:55:29;24.60;99.90
11256;HTU21D;5685;52.384;13.420;2022-07-23T02:58:31;24.60;99.90
11256;HTU21D;5685;52.384;13.420;2022-07-23T03:01:34;24.60;99.90
11256;HTU21D;5685;52.384;13.420;2022-07-23T03:04:36;24.60;99.90
11256;HTU21D;5685;52.384;13.420;2022-07-23T03:07:38;24.50;99.90
11256;HTU21D;5685;52.384;13.420;2022-07-23T03:10:42;24.50;99.90
11256;HTU21D;5685;52.384;13.420;2022-07-23T03:13:44;24.50;99.90
11256;HTU21D;5685;52.384;13.420;2022-07-23T03:16:47;24.50;99.90
11256;HTU21D;5685;52.384;13.420;2022-07-23T03:19:50;24.60;99.90
11256;HTU21D;5685;52.384;13.420;2022-07-23T03:22:53;24.60;99.90
11256;HTU21D;5685;52.384;13.420;2022-07-23T03:25:57;24.60;99.90
11256;HTU21D;5685;52.384;13.420;2022-07-23T03:28:59;24.50;99.90
11256;HTU21D;5685;52.384;13.420;2022-07-23T03:32:01;24.50;99.90
11256;HTU21D;5685;52.384;13.420;2022-07-23T03:35:05;24.50;99.90
11256;HTU21D;5685;52.384;13.420;2022-07-23T03:38:08;24.50;99.90
11256;HTU21D;5685;52.384;13.420;2022-07-23T03:41:11;24.60;99.90
11256;HTU21D;5685;52.384;13.420;2022-07-23T03:44:14;24.60;99.90
11256;HTU21D;5685;52.384;13.420;2022-07-23T03:47:16;24.50;99.90
11256;HTU21D;5685;52.384;13.420;2022-07-23T03:50:22;24.50;99.90
11256;HTU21D;5685;52.384;13.420;2022-07-23T03:53:24;24.50;99.90
11256;HTU21D;5685;52.384;13.420;2022-07-23T03:56:28;24.60;99.90
11256;HTU21D;5685;52.384;13.420;2022-07-23T03:59:30;24.60;99.90
11256;HTU21D;5685;52.384;13.420;2022-07-23T04:02:33;24.50;99.90
11256;HTU21D;5685;52.384;13.420;2022-07-23T04:05:35;24.50;99.90
11256;HTU21D;5685;52.384;13.420;2022-07-23T04:08:37;24.40;99.90
11256;HTU21D;5685;52.384;13.420;2022-07-23T04:11:41;24.40;99.90
11256;HTU21D;5685;52.384;13.420;2022-07-23T04:14:44;24.30;99.90
11256;HTU21D;5685;52.384;13.420;2022-07-23T04:17:46;24.30;99.90
11256;HTU21D;5685;52.384;13.420;2022-07-23T04:20:49;24.20;99.90
11256;HTU21D;5685;52.384;13.420;2022-07-23T04:23:52;24.20;99.90
11256;HTU21D;5685;52.384;13.420;2022-07-23T04:26:56;24.20;99.90
11256;HTU21D;5685;52.384;13.420;2022-07-23T04:29:58;24.10;99.90
11256;HTU21D;5685;52.384;13.420;2022-07-23T04:33:00;24.10;99.90
11256;HTU21D;5685;52.384;13.420;2022-07-23T04:36:06;24.10;99.90
11256;HTU21D;5685;52.384;13.420;2022-07-23T04:39:09;24.00;99.90
11256;HTU21D;5685;52.384;13.420;2022-07-23T04:42:12;24.00;99.90
11256;HTU21D;5685;52.384;13.420;2022-07-23T04:45:14;24.00;99.90
11256;HTU21D;5685;52.384;13.420;2022-07-23T04:48:16;23.90;99.90
11256;HTU21D;5685;52.384;13.420;2022-07-23T04:51:18;23.90;99.90
11256;HTU21D;5685;52.384;13.420;2022-07-23T04:54:21;23.80;99.90
11256;HTU21D;5685;52.384;13.420;2022-07-23T04:57:24;23.80;99.90
11256;HTU21D;5685;52.384;13.420;2022-07-23T05:00:27;23.80;99.90
11256;HTU21D;5685;52.384;13.420;2022-07-23T05:03:29;23.80;99.90
11256;HTU21D;5685;52.384;13.420;2022-07-23T05:06:31;23.70;99.90
11256;HTU21D;5685;52.384;13.420;2022-07-23T05:09:34;23.70;99.90
11256;HTU21D;5685;52.384;13.420;2022-07-23T05:12:37;23.70;99.90
11256;HTU21D;5685;52.384;13.420;2022-07-23T05:15:40;23.70;99.90
11256;HTU21D;5685;52.384;13.420;2022-07-23T05:18:42;23.70;99.90
11256;HTU21D;5685;52.384;13.420;2022-07-23T05:21:44;23.70;99.90
11256;HTU21D;5685;52.384;13.420;2022-07-23T05:24:46;23.70;99.90
11256;HTU21D;5685;52.384;13.420;2022-07-23T05:27:50;23.60;99.90
11256;HTU21D;5685;52.384;13.420;2022-07-23T05:30:53;23.60;99.90
11256;HTU21D;5685;52.384;13.420;2022-07-23T05:33:55;23.60;99.90
11256;HTU21D;5685;52.384;13.420;2022-07-23T05:36:57;23.60;99.90
11256;HTU21D;5685;52.384;13.420;2022-07-23T05:40:01;23.60;99.90
11256;HTU21D;5685;52.384;13.420;2022-07-23T05:43:05;23.60;99.90
11256;HTU21D;5685;52.384;13.420;2022-07-23T05:46:07;23.50;99.90
11256;HTU21D;5685;52.384;13.420;2022-07-23T05:49:10;23.50;99.90
11256;HTU21D;5685;52.384;13.420;2022-07-23T05:52:12;23.50;99.90
11256;HTU21D;5685;52.384;13.420;2022-07-23T05:55:14;23.60;99.90
11256;HTU21D;5685;52.384;13.420;2022-07-23T05:58:18;23.60;99.90
11256;HTU21D;5685;52.384;13.420;2022-07-23T06:01:20;23.60;99.90
11256;HTU21D;5685;52.384;13.420;2022-07-23T06:04:22;23.60;99.90
11256;HTU21D;5685;52.384;13.420;2022-07-23T06:07:25;23.70;99.90
11256;HTU21D;5685;52.384;13.420;2022-07-23T06:10:27;23.70;99.90
11256;HTU21D;5685;52.384;13.420;2022-07-23T06:13:31;23.70;99.90
11256;HTU21D;5685;52.384;13.420;2022-07-23T06:16:33;23.70;99.90
11256;HTU21D;5685;52.384;13.420;2022-07-23T06:19:35;23.70;99.90
11256;HTU21D;5685;52.384;13.420;2022-07-23T06:22:37;23.80;99.90
11256;HTU21D;5685;52.384;13.420;2022-07-23T06:25:39;23.80;99.90
11256;HTU21D;5685;52.384;13.420;2022-07-23T06:28:42;23.80;99.90
11256;HTU21D;5685;52.384;13.420;2022-07-23T06:31:44;23.80;99.90
11256;HTU21D;5685;52.384;13.420;2022-07-23T06:34:46;23.80;99.90
11256;HTU21D;5685;52.384;13.420;2022-07-23T06:37:49;23.80;99.90
11256;HTU21D;5685;52.384;13.420;2022-07-23T06:40:51;23.80;99.90
11256;HTU21D;5685;52.384;13.420;2022-07-23T06:43:54;23.90;99.90
11256;HTU21D;5685;52.384;13.420;2022-07-23T06:46:56;23.90;99.90
11256;HTU21D;5685;52.384;13.420;2022-07-23T06:49:58;23.90;99.90
11256;HTU21D;5685;52.384;13.420;2022-07-23T06:53:00;23.90;99.90
11256;HTU21D;5685;52.384;13.420;2022-07-23T06:56:03;23.90;99.90
11256;HTU21D;5685;52.384;13.420;2022-07-23T06:59:06;23.90;99.90
11256;HTU21D;5685;52.384;13.420;2022-07-23T07:02:08;23.90;99.90
11256;HTU21D;5685;52.384;13.420;2022-07-23T07:05:10;23.90;99.90
11256;HTU21D;5685;52.384;13.420;2022-07-23T07:08:12;23.90;99.90
11256;HTU21D;5685;52.384;13.420;2022-07-23T07:11:14;24.00;99.90
11256;HTU21D;5685;52.384;13.420;2022-07-23T07:14:18;24.00;99.90
11256;HTU21D;5685;52.384;13.420;2022-07-23T07:17:20;24.00;99.90
11256;HTU21D;5685;52.384;13.420;2022-07-23T07:20:22;24.00;99.90
11256;HTU21D;5685;52.384;13.420;2022-07-23T07:23:25;24.00;99.90
11256;HTU21D;5685;52.384;13.420;2022-07-23T07:26:27;24.00;99.90
11256;HTU21D;5685;52.384;13.420;2022-07-23T07:29:31;23.90;99.90
11256;HTU21D;5685;52.384;13.420;2022-07-23T07:32:33;23.90;99.90
11256;HTU21D;5685;52.384;13.420;2022-07-23T07:35:37;23.90;99.90
11256;HTU21D;5685;52.384;13.420;2022-07-23T07:38:39;23.90;99.90
11256;HTU21D;5685;52.384;13.420;2022-07-23T07:41:41;23.90;99.90
11256;HTU21D;5685;52.384;13.420;2022-07-23T07:44:45;23.90;99.90
11256;HTU21D;5685;52.384;13.420;2022-07-23T07:47:47;23.90;99.90
11256;HTU21D;5685;52.384;13.420;2022-07-23T07:50:49;23.90;99.90
11256;HTU21D;5685;52.384;13.420;2022-07-23T07:53:51;23.90;99.90
11256;HTU21D;5685;52.384;13.420;2022-07-23T07:56:54;23.80;99.90
11256;HTU21D;5685;52.384;13.420;2022-07-23T07:59:58;23.80;99.90
11256;HTU21D;5685;52.384;13.420;2022-07-23T08:03:00;23.80;99.90
11256;HTU21D;5685;52.384;13.420;2022-07-23T08:06:02;23.80;99.90
11256;HTU21D;5685;52.384;13.420;2022-07-23T08:09:05;23.80;99.90
11256;HTU21D;5685;52.384;13.420;2022-07-23T08:12:07;23.80;99.90
11256;HTU21D;5685;52.384;13.420;2022-07-23T08:15:12;23.80;99.90
11256;HTU21D;5685;52.384;13.420;2022-07-23T08:18:14;23.70;99.90
11256;HTU21D;5685;52.384;13.420;2022-07-23T08:21:17;23.70;99.90
11256;HTU21D;5685;52.384;13.420;2022-07-23T08:24:19;23.70;99.90
11256;HTU21D;5685;52.384;13.420;2022-07-23T08:27:21;23.70;99.90
11256;HTU21D;5685;52.384;13.420;2022-07-23T08:30:24;23.60;99.90
11256;HTU21D;5685;52.384;13.420;2022-07-23T08:33:27;23.70;99.90
11256;HTU21D;5685;52.384;13.420;2022-07-23T08:36:29;23.70;99.90
11256;HTU21D;5685;52.384;13.420;2022-07-23T08:39:32;23.70;99.90
11256;HTU21D;5685;52.384;13.420;2022-07-23T08:42:35;23.60;99.90
11256;HTU21D;5685;52.384;13.420;2022-07-23T08:45:41;23.60;99.90
11256;HTU21D;5685;52.384;13.420;2022-07-23T08:48:44;23.60;99.90
11256;HTU21D;5685;52.384;13.420;2022-07-23T08:51:49;23.60;99.90
11256;HTU21D;5685;52.384;13.420;2022-07-23T08:54:51;23.60;99.90
11256;HTU21D;5685;52.384;13.420;2022-07-23T08:57:54;23.60;99.90
11256;HTU21D;5685;52.384;13.420;2022-07-23T09:00:58;23.60;99.90
11256;HTU21D;5685;52.384;13.420;2022-07-23T09:04:01;23.60;99.90
11256;HTU21D;5685;52.384;13.420;2022-07-23T09:07:03;23.60;99.90
11256;HTU21D;5685;52.384;13.420;2022-07-23T09:10:08;23.60;99.90
11256;HTU21D;5685;52.384;13.420;2022-07-23T09:13:27;23.60;99.90
11256;HTU21D;5685;52.384;13.420;2022-07-23T09:16:32;23.60;99.90
11256;HTU21D;5685;52.384;13.420;2022-07-23T09:19:35;23.60;99.90
11256;HTU21D;5685;52.384;13.420;2022-07-23T09:22:37;23.60;99.90
11256;HTU21D;5685;52.384;13.420;2022-07-23T09:25:39;23.60;99.90
11256;HTU21D;5685;52.384;13.420;2022-07-23T09:28:50;23.60;99.90
11256;HTU21D;5685;52.384;13.420;2022-07-23T09:31:56;23.60;99.90
11256;HTU21D;5685;52.384;13.420;2022-07-23T09:35:00;23.70;99.90
11256;HTU21D;5685;52.384;13.420;2022-07-23T09:38:02;23.70;99.90
11256;HTU21D;5685;52.384;13.420;2022-07-23T09:41:06;23.70;99.90
11256;HTU21D;5685;52.384;13.420;2022-07-23T09:44:11;23.70;99.90
11256;HTU21D;5685;52.384;13.420;2022-07-23T09:47:16;23.60;99.90
11256;HTU21D;5685;52.384;13.420;2022-07-23T09:50:20;23.60;99.90
11256;HTU21D;5685;52.384;13.420;2022-07-23T09:53:24;23.60;99.90
11256;HTU21D;5685;52.384;13.420;2022-07-23T09:56:27;23.70;99.90
11256;HTU21D;5685;52.384;13.420;2022-07-23T09:59:32;23.60;99.90
11256;HTU21D;5685;52.384;13.420;2022-07-23T10:02:37;23.60;99.90
11256;HTU21D;5685;52.384;13.420;2022-07-23T10:05:41;23.60;99.90
11256;HTU21D;5685;52.384;13.420;2022-07-23T10:08:46;23.60;99.90
11256;HTU21D;5685;52.384;13.420;2022-07-23T10:11:50;23.60;99.90
11256;HTU21D;5685;52.384;13.420;2022-07-23T10:14:56;23.60;99.90
11256;HTU21D;5685;52.384;13.420;2022-07-23T10:18:02;23.60;99.90
11256;HTU21D;5685;52.384;13.420;2022-07-23T10:21:07;23.70;99.90
11256;HTU21D;5685;52.384;13.420;2022-07-23T10:24:20;23.70;99.90
11256;HTU21D;5685;52.384;13.420;2022-07-23T10:27:58;23.60;99.90
11256;HTU21D;5685;52.384;13.420;2022-07-23T10:31:09;23.60;99.90
11256;HTU21D;5685;52.384;13.420;2022-07-23T10:34:27;23.60;99.90
11256;HTU21D;5685;52.384;13.420;2022-07-23T10:37:38;23.60;99.90
11256;HTU21D;5685;52.384;13.420;2022-07-23T10:40:54;23.60;99.90
11256;HTU21D;5685;52.384;13.420;2022-07-23T10:44:06;23.60;99.90
11256;HTU21D;5685;52.384;13.420;2022-07-23T10:47:13;23.60;99.90
11256;HTU21D;5685;52.384;13.420;2022-07-23T10:51:05;23.60;99.90
11256;HTU21D;5685;52.384;13.420;2022-07-23T10:54:20;23.60;99.90
11256;HTU21D;5685;52.384;13.420;2022-07-23T10:57:24;23.60;99.90
11256;HTU21D;5685;52.384;13.420;2022-07-23T11:00:28;23.60;99.90
11256;HTU21D;5685;52.384;13.420;2022-07-23T11:03:33;23.60;99.90
11256;HTU21D;5685;52.384;13.420;2022-07-23T11:07:09;23.60;99.90
11256;HTU21D;5685;52.384;13.420;2022-07-23T11:10:32;23.60;99.90
11256;HTU21D;5685;52.384;13.420;2022-07-23T11:13:40;23.60;99.90
11256;HTU21D;5685;52.384;13.420;2022-07-23T11:16:47;23.50;99.90
11256;HTU21D;5685;52.384;13.420;2022-07-23T11:20:18;23.50;99.90
11256;HTU21D;5685;52.384;13.420;2022-07-23T11:23:23;23.50;99.90
11256;HTU21D;5685;52.384;13.420;2022-07-23T11:27:01;23.50;99.90
11256;HTU21D;5685;52.384;13.420;2022-07-23T11:30:06;23.60;99.90
11256;HTU21D;5685;52.384;13.420;2022-07-23T11:33:20;23.60;99.90
11256;HTU21D;5685;52.384;13.420;2022-07-23T11:36:23;23.60;99.90
11256;HTU21D;5685;52.384;13.420;2022-07-23T11:39:28;23.60;99.90
11256;HTU21D;5685;52.384;13.420;2022-07-23T11:42:32;23.60;99.90
11256;HTU21D;5685;52.384;13.420;2022-07-23T11:45:36;23.60;99.90
11256;HTU21D;5685;52.384;13.420;2022-07-23T11:48:39;23.60;99.90
11256;HTU21D;5685;52.384;13.420;2022-07-23T11:51:41;23.60;99.90
11256;HTU21D;5685;52.384;13.420;2022-07-23T11:54:50;23.60;99.90
11256;HTU21D;5685;52.384;13.420;2022-07-23T11:57:54;23.60;99.90
11256;HTU21D;5685;52.384;13.420;2022-07-23T12:00:58;23.60;99.90
11256;HTU21D;5685;52.384;13.420;2022-07-23T12:04:00;23.60;99.90
11256;HTU21D;5685;52.384;13.420;2022-07-23T12:07:02;23.60;99.90
11256;HTU21D;5685;52.384;13.420;2022-07-23T12:10:11;23.70;99.90
11256;HTU21D;5685;52.384;13.420;2022-07-23T12:13:17;23.70;99.90
11256;HTU21D;5685;52.384;13.420;2022-07-23T12:16:20;23.70;99.90
11256;HTU21D;5685;52.384;13.420;2022-07-23T12:19:23;23.70;99.90
11256;HTU21D;5685;52.384;13.420;2022-07-23T12:22:27;23.70;99.90
11256;HTU21D;5685;52.384;13.420;2022-07-23T12:25:38;23.70;99.90
11256;HTU21D;5685;52.384;13.420;2022-07-23T12:28:41;23.70;99.90
11256;HTU21D;5685;52.384;13.420;2022-07-23T12:31:46;23.70;99.90
11256;HTU21D;5685;52.384;13.420;2022-07-23T12:34:49;23.70;99.90
11256;HTU21D;5685;52.384;13.420;2022-07-23T12:38:00;23.70;99.90
11256;HTU21D;5685;52.384;13.420;2022-07-23T12:41:05;23.70;99.90
11256;HTU21D;5685;52.384;13.420;2022-07-23T12:44:14;23.70;99.90
11256;HTU21D;5685;52.384;13.420;2022-07-23T12:47:17;23.70;99.90
11256;HTU21D;5685;52.384;13.420;2022-07-23T12:50:33;23.70;99.90
11256;HTU21D;5685;52.384;13.420;2022-07-23T12:53:38;23.70;99.90
11256;HTU21D;5685;52.384;13.420;2022-07-23T12:56:45;23.70;99.90
11256;HTU21D;5685;52.384;13.420;2022-07-23T12:59:48;23.70;99.90
11256;HTU21D;5685;52.384;13.420;2022-07-23T13:02:50;23.70;99.90
11256;HTU21D;5685;52.384;13.420;2022-07-23T13:05:53;23.80;99.90
11256;HTU21D;5685;52.384;13.420;2022-07-23T13:08:55;23.80;99.90
11256;HTU21D;5685;52.384;13.420;2022-07-23T13:11:59;23.80;99.90
11256;HTU21D;5685;52.384;13.420;2022-07-23T13:15:02;23.80;99.90
11256;HTU21D;5685;52.384;13.420;2022-07-23T13:18:04;23.80;99.90
11256;HTU21D;5685;52.384;13.420;2022-07-23T13:21:07;23.80;99.90
11256;HTU21D;5685;52.384;13.420;2022-07-23T13:24:11;23.80;99.90
11256;HTU21D;5685;52.384;13.420;2022-07-23T13:27:15;23.80;99.90
11256;HTU21D;5685;52.384;13.420;2022-07-23T13:30:17;23.80;99.90
11256;HTU21D;5685;52.384;13.420;2022-07-23T13:33:24;23.80;99.90
11256;HTU21D;5685;52.384;13.420;2022-07-23T13:36:27;23.80;99.90
11256;HTU21D;5685;52.384;13.420;2022-07-23T13:39:29;23.80;99.90
11256;HTU21D;5685;52.384;13.420;2022-07-23T13:42:33;23.80;99.90
11256;HTU21D;5685;52.384;13.420;2022-07-23T13:45:36;23.80;99.90
11256;HTU21D;5685;52.384;13.420;2022-07-23T13:48:39;23.80;99.90
11256;HTU21D;5685;52.384;13.420;2022-07-23T13:51:41;23.80;99.90
11256;HTU21D;5685;52.384;13.420;2022-07-23T13:54:44;23.90;99.90
11256;HTU21D;5685;52.384;13.420;2022-07-23T13:57:47;23.90;99.90
11256;HTU21D;5685;52.384;13.420;2022-07-23T14:00:51;23.90;99.90
11256;HTU21D;5685;52.384;13.420;2022-07-23T14:03:54;23.90;99.90
11256;HTU21D;5685;52.384;13.420;2022-07-23T14:06:57;23.90;99.90
11256;HTU21D;5685;52.384;13.420;2022-07-23T14:09:59;23.80;99.90
11256;HTU21D;5685;52.384;13.420;2022-07-23T14:13:03;23.90;99.90
11256;HTU21D;5685;52.384;13.420;2022-07-23T14:16:06;23.90;99.90
11256;HTU21D;5685;52.384;13.420;2022-07-23T14:19:09;23.90;99.90
11256;HTU21D;5685;52.384;13.420;2022-07-23T14:22:11;23.90;99.90
11256;HTU21D;5685;52.384;13.420;2022-07-23T14:25:13;23.90;99.90
11256;HTU21D;5685;52.384;13.420;2022-07-23T14:28:16;23.90;99.90
11256;HTU21D;5685;52.384;13.420;2022-07-23T14:31:19;23.90;99.90
11256;HTU21D;5685;52.384;13.420;2022-07-23T14:34:21;23.90;99.90
11256;HTU21D;5685;52.384;13.420;2022-07-23T14:37:23;23.90;99.90
11256;HTU21D;5685;52.384;13.420;2022-07-23T14:40:25;24.00;99.90
11256;HTU21D;5685;52.384;13.420;2022-07-23T14:43:28;24.00;99.90
11256;HTU21D;5685;52.384;13.420;2022-07-23T14:46:30;24.00;99.90
11256;HTU21D;5685;52.384;13.420;2022-07-23T14:49:32;24.00;99.90
11256;HTU21D;5685;52.384;13.420;2022-07-23T14:52:35;24.00;99.90
11256;HTU21D;5685;52.384;13.420;2022-07-23T14:55:37;24.00;99.90
11256;HTU21D;5685;52.384;13.420;2022-07-23T14:58:41;24.00;99.90
11256;HTU21D;5685;52.384;13.420;2022-07-23T15:01:44;24.00;99.90
11256;HTU21D;5685;52.384;13.420;2022-07-23T15:04:46;24.00;99.90
11256;HTU21D;5685;52.384;13.420;2022-07-23T15:07:49;24.00;99.90
11256;HTU21D;5685;52.384;13.420;2022-07-23T15:10:51;24.00;99.90
11256;HTU21D;5685;52.384;13.420;2022-07-23T15:13:55;24.00;99.90
11256;HTU21D;5685;52.384;13.420;2022-07-23T15:16:57;24.00;99.90
11256;HTU21D;5685;52.384;13.420;2022-07-23T15:19:59;24.00;99.90
11256;HTU21D;5685;52.384;13.420;2022-07-23T15:23:02;24.00;99.90
11256;HTU21D;5685;52.384;13.420;2022-07-23T15:26:05;24.00;99.90
11256;HTU21D;5685;52.384;13.420;2022-07-23T15:29:09;24.00;99.90
11256;HTU21D;5685;52.384;13.420;2022-07-23T15:32:11;24.00;99.90
11256;HTU21D;5685;52.384;13.420;2022-07-23T15:35:13;24.00;99.90
11256;HTU21D;5685;52.384;13.420;2022-07-23T15:38:15;24.00;99.90
11256;HTU21D;5685;52.384;13.420;2022-07-23T15:41:18;24.10;99.90
11256;HTU21D;5685;52.384;13.420;2022-07-23T15:44:21;24.10;99.90
11256;HTU21D;5685;52.384;13.420;2022-07-23T15:47:23;24.10;99.90
11256;HTU21D;5685;52.384;13.420;2022-07-23T15:50:26;24.10;99.90
11256;HTU21D;5685;52.384;13.420;2022-07-23T15:53:28;24.10;99.90
11256;HTU21D;5685;52.384;13.420;2022-07-23T15:56:30;24.10;99.90
11256;HTU21D;5685;52.384;13.420;2022-07-23T15:59:34;24.10;99.90
11256;HTU21D;5685;52.384;13.420;2022-07-23T16:02:37;24.10;99.90
11256;HTU21D;5685;52.384;13.420;2022-07-23T16:05:40;24.10;99.90
11256;HTU21D;5685;52.384;13.420;2022-07-23T16:08:43;24.10;99.90
11256;HTU21D;5685;52.384;13.420;2022-07-23T16:11:45;24.10;99.90
11256;HTU21D;5685;52.384;13.420;2022-07-23T16:14:49;24.10;99.90
11256;HTU21D;5685;52.384;13.420;2022-07-23T16:17:53;24.10;99.90
11256;HTU21D;5685;52.384;13.420;2022-07-23T16:20:56;24.10;99.90
11256;HTU21D;5685;52.384;13.420;2022-07-23T16:23:58;24.10;99.90
11256;HTU21D;5685;52.384;13.420;2022-07-23T16:27:00;24.10;99.90
11256;HTU21D;5685;52.384;13.420;2022-07-23T16:30:06;24.10;99.90
11256;HTU21D;5685;52.384;13.420;2022-07-23T16:33:09;24.10;99.90
11256;HTU21D;5685;52.384;13.420;2022-07-23T16:36:11;24.10;99.90
11256;HTU21D;5685;52.384;13.420;2022-07-23T16:39:13;24.10;99.90
11256;HTU21D;5685;52.384;13.420;2022-07-23T16:42:15;24.10;99.90
11256;HTU21D;5685;52.384;13.420;2022-07-23T16:45:19;24.10;99.90
11256;HTU21D;5685;52.384;13.420;2022-07-23T16:48:21;24.10;99.90
11256;HTU21D;5685;52.384;13.420;2022-07-23T16:51:23;24.10;99.90
11256;HTU21D;5685;52.384;13.420;2022-07-23T16:54:25;24.10;99.90
11256;HTU21D;5685;52.384;13.420;2022-07-23T16:57:28;24.10;99.90
11256;HTU21D;5685;52.384;13.420;2022-07-23T17:00:32;24.10;99.90
11256;HTU21D;5685;52.384;13.420;2022-07-23T17:03:34;24.20;99.90
11256;HTU21D;5685;52.384;13.420;2022-07-23T17:06:36;24.20;99.90
11256;HTU21D;5685;52.384;13.420;2022-07-23T17:09:38;24.20;99.90
11256;HTU21D;5685;52.384;13.420;2022-07-23T17:12:41;24.20;99.90
11256;HTU21D;5685;52.384;13.420;2022-07-23T17:15:44;24.20;99.90
11256;HTU21D;5685;52.384;13.420;2022-07-23T17:18:46;24.10;99.50
11256;HTU21D;5685;52.384;13.420;2022-07-23T17:21:49;24.20;99.90
11256;HTU21D;5685;52.384;13.420;2022-07-23T17:24:51;24.20;99.90
11256;HTU21D;5685;52.384;13.420;2022-07-23T17:27:53;24.20;99.50
11256;HTU21D;5685;52.384;13.420;2022-07-23T17:30:56;24.20;99.80
11256;HTU21D;5685;52.384;13.420;2022-07-23T17:33:59;24.20;99.60
11256;HTU21D;5685;52.384;13.420;2022-07-23T17:37:01;24.20;99.40
11256;HTU21D;5685;52.384;13.420;2022-07-23T17:40:04;24.20;99.50
11256;HTU21D;5685;52.384;13.420;2022-07-23T17:43:08;24.20;99.50
11256;HTU21D;5685;52.384;13.420;2022-07-23T17:46:12;24.20;99.20
11256;HTU21D;5685;52.384;13.420;2022-07-23T17:49:14;24.20;98.90
11256;HTU21D;5685;52.384;13.420;2022-07-23T17:52:16;24.20;98.60
11256;HTU21D;5685;52.384;13.420;2022-07-23T17:55:19;24.20;98.40
11256;HTU21D;5685;52.384;13.420;2022-07-23T17:58:22;24.20;97.70
11256;HTU21D;5685;52.384;13.420;2022-07-23T18:01:26;24.20;97.50
11256;HTU21D;5685;52.384;13.420;2022-07-23T18:04:29;24.20;97.20
11256;HTU21D;5685;52.384;13.420;2022-07-23T18:07:32;24.10;97.10
11256;HTU21D;5685;52.384;13.420;2022-07-23T18:10:35;24.10;97.10
11256;HTU21D;5685;52.384;13.420;2022-07-23T18:13:37;24.10;97.20
11256;HTU21D;5685;52.384;13.420;2022-07-23T18:16:41;24.10;97.60
11256;HTU21D;5685;52.384;13.420;2022-07-23T18:19:44;24.10;97.00
11256;HTU21D;5685;52.384;13.420;2022-07-23T18:22:47;24.10;97.20
11256;HTU21D;5685;52.384;13.420;2022-07-23T18:25:49;24.10;97.00
11256;HTU21D;5685;52.384;13.420;2022-07-23T18:31:55;24.10;96.80
11256;HTU21D;5685;52.384;13.420;2022-07-23T18:34:58;24.10;97.00
11256;HTU21D;5685;52.384;13.420;2022-07-23T18:38:00;24.10;96.60
11256;HTU21D;5685;52.384;13.420;2022-07-23T18:41:02;24.00;96.60
11256;HTU21D;5685;52.384;13.420;2022-07-23T18:44:04;24.00;96.40
11256;HTU21D;5685;52.384;13.420;2022-07-23T18:47:07;24.00;96.40
11256;HTU21D;5685;52.384;13.420;2022-07-23T18:50:11;24.00;96.30
11256;HTU21D;5685;52.384;13.420;2022-07-23T18:53:13;24.00;96.20
11256;HTU21D;5685;52.384;13.420;2022-07-23T18:56:15;24.00;96.10
11256;HTU21D;5685;52.384;13.420;2022-07-23T18:59:17;24.00;96.20
11256;HTU21D;5685;52.384;13.420;2022-07-23T19:02:21;24.00;96.30
11256;HTU21D;5685;52.384;13.420;2022-07-23T19:05:23;24.00;96.30